Time;durP1;ratioP1;P1;durP2;ratioP2;P2;SDS_P1;SDS_P2;PMS_P1;PMS_P2;Temp;Humidity;BMP_temperature;BMP_pressure;BME280_temperature;BME280_humidity;BME280_pressure;Samples;Min_cycle;Max_cycle;Signal;HPM_P1;HPM_P2
2022/03/02 00:02:19;;;;;;;61.43;31.30;;;;;;;-4.05;70.09;101998.72;1668964;86;21931;-76
2022/03/02 00:04:46;;;;;;;61.60;29.13;;;;;;;-4.03;70.27;101996.21;1668560;86;21031;-76
2022/03/02 00:07:14;;;;;;;66.80;31.33;;;;;;;-4.01;70.41;102000.14;1668614;86;21503;-76
2022/03/02 00:09:50;;;;;;;69.10;33.90;;;;;;;-4.03;70.41;101997.48;1668832;86;21050;-76
2022/03/02 00:12:17;;;;;;;73.60;34.03;;;;;;;-4.02;70.31;101995.80;1668950;86;21030;-76
2022/03/02 00:14:44;;;;;;;71.03;32.33;;;;;;;-4.03;70.36;102006.45;1668626;86;22051;-76
2022/03/02 00:17:11;;;;;;;59.93;27.47;;;;;;;-4.04;70.40;101999.59;1668824;86;20987;-76
2022/03/02 00:19:38;;;;;;;48.70;24.03;;;;;;;-4.05;70.33;102005.12;1668922;86;21548;-76
2022/03/02 00:22:05;;;;;;;52.27;23.93;;;;;;;-4.06;70.40;101998.22;1668647;86;21521;-76
2022/03/02 00:24:33;;;;;;;48.80;23.30;;;;;;;-4.05;70.43;101993.97;1668956;86;21026;-76
2022/03/02 00:27:00;;;;;;;46.37;22.03;;;;;;;-4.04;70.41;101997.90;1668704;86;21128;-76
2022/03/02 00:29:27;;;;;;;52.67;23.53;;;;;;;-4.04;70.35;101995.75;1668969;86;21473;-76
2022/03/02 00:31:54;;;;;;;52.90;25.23;;;;;;;-4.07;70.25;101996.48;1668149;85;21544;-76
2022/03/02 00:34:22;;;;;;;54.23;26.40;;;;;;;-4.09;70.25;101987.83;1659246;86;20992;-75
2022/03/02 00:36:49;;;;;;;50.13;26.20;;;;;;;-4.12;70.27;101985.53;1659127;86;21047;-76
2022/03/02 00:39:16;;;;;;;51.63;26.00;;;;;;;-4.13;70.24;101983.38;1667263;86;21067;-77
2022/03/02 00:41:43;;;;;;;51.83;26.83;;;;;;;-4.17;70.22;101977.62;1668783;86;20986;-75
2022/03/02 00:44:13;;;;;;;52.07;26.50;;;;;;;-4.19;70.22;101973.23;1668790;86;21038;-75
2022/03/02 00:46:41;;;;;;;47.43;24.97;;;;;;;-4.22;70.22;101972.67;1666090;86;21447;-76
2022/03/02 00:49:09;;;;;;;55.57;26.00;;;;;;;-4.23;70.40;101977.34;1666115;86;21444;-75
2022/03/02 00:51:37;;;;;;;50.73;26.13;;;;;;;-4.22;70.55;101971.80;1666176;86;21834;-75
2022/03/02 00:54:05;;;;;;;53.97;25.47;;;;;;;-4.23;70.54;101977.34;1666125;86;20991;-76
2022/03/02 00:56:32;;;;;;;55.10;27.77;;;;;;;-4.22;70.72;101963.72;1666475;86;21012;-76
2022/03/02 00:58:59;;;;;;;45.77;23.70;;;;;;;-4.19;70.80;101968.11;1668790;86;21078;-75
2022/03/02 01:01:26;;;;;;;45.20;22.77;;;;;;;-4.13;71.25;101964.18;1669060;86;21094;-75
2022/03/02 01:03:53;;;;;;;43.97;22.17;;;;;;;-4.09;71.37;101958.79;1668660;86;21113;-75
2022/03/02 01:06:20;;;;;;;43.60;22.70;;;;;;;-4.09;71.20;101954.95;1668888;86;21124;-76
2022/03/02 01:08:47;;;;;;;48.40;22.87;;;;;;;-4.09;71.15;101944.70;1668717;86;21516;-75
2022/03/02 01:11:16;;;;;;;44.43;21.33;;;;;;;-4.12;70.93;101943.28;1666079;86;21456;-75
2022/03/02 01:13:43;;;;;;;42.87;21.87;;;;;;;-4.18;70.78;101941.72;1666321;86;21015;-75
2022/03/02 01:16:10;;;;;;;42.10;21.13;;;;;;;-4.22;70.89;101939.80;1666154;86;21119;-76
2022/03/02 01:18:37;;;;;;;44.20;21.50;;;;;;;-4.23;70.81;101941.90;1666431;86;20912;-75
2022/03/02 01:21:04;;;;;;;42.73;21.87;;;;;;;-4.30;70.71;101936.87;1666122;86;21039;-75
2022/03/02 01:23:32;;;;;;;46.33;22.30;;;;;;;-4.35;70.87;101939.61;1666398;86;20992;-75
2022/03/02 01:25:59;;;;;;;43.03;21.20;;;;;;;-4.36;70.80;101939.14;1666121;86;20991;-75
2022/03/02 01:28:26;;;;;;;47.10;22.70;;;;;;;-4.42;70.73;101930.77;1666361;86;21920;-77
2022/03/02 01:30:53;;;;;;;41.07;21.70;;;;;;;-4.44;70.87;101927.25;1666045;86;21070;-75
2022/03/02 01:33:21;;;;;;;42.50;21.50;;;;;;;-4.45;71.04;101922.94;1666419;86;21097;-75
2022/03/02 01:35:48;;;;;;;49.37;23.27;;;;;;;-4.49;70.90;101928.33;1659919;86;20999;-75
2022/03/02 01:38:15;;;;;;;40.83;21.57;;;;;;;-4.49;71.08;101929.60;1659828;86;21126;-75
2022/03/02 01:40:42;;;;;;;45.73;22.93;;;;;;;-4.52;70.99;101928.18;1659546;86;21121;-75
2022/03/02 01:43:11;;;;;;;48.97;22.60;;;;;;;-4.54;70.96;101928.50;1659804;86;22277;-77
2022/03/02 01:45:39;;;;;;;46.77;23.43;;;;;;;-4.52;71.34;101932.39;1659571;86;21031;-75
2022/03/02 01:48:06;;;;;;;52.13;25.87;;;;;;;-4.41;71.83;101927.80;1659879;86;21004;-75
2022/03/02 01:50:33;;;;;;;51.93;24.93;;;;;;;-4.34;72.17;101909.38;1659635;86;21008;-76
2022/03/02 01:53:04;;;;;;;49.00;23.53;;;;;;;-4.29;72.16;101910.08;1659962;86;21102;-76
2022/03/02 01:55:31;;;;;;;48.73;23.30;;;;;;;-4.28;72.28;101901.98;1659691;85;21564;-76
2022/03/02 01:57:58;;;;;;;55.00;30.87;;;;;;;-4.34;71.60;101901.70;1659603;84;21325;-75
2022/03/02 02:00:26;;;;;;;64.87;34.53;;;;;;;-4.38;71.82;101894.66;1659523;86;21521;-75
2022/03/02 02:02:53;;;;;;;61.83;32.10;;;;;;;-4.36;72.16;101902.03;1659828;86;21034;-75
2022/03/02 02:05:21;;;;;;;60.87;29.17;;;;;;;-4.36;71.93;101897.78;1659600;86;22122;-76
2022/03/02 02:07:48;;;;;;;57.37;28.63;;;;;;;-4.42;71.42;101894.06;1659436;86;21541;-76
2022/03/02 02:10:17;;;;;;;48.03;26.30;;;;;;;-4.51;71.25;101892.81;1659567;85;21039;-76
2022/03/02 02:12:44;;;;;;;52.67;25.57;;;;;;;-4.57;71.32;101886.13;1659543;85;21485;-76
2022/03/02 02:15:12;;;;;;;49.77;24.57;;;;;;;-4.61;71.36;101887.17;1659573;86;21039;-76
2022/03/02 02:17:41;;;;;;;50.80;25.07;;;;;;;-4.62;71.42;101887.99;1659695;86;22138;-75
2022/03/02 02:20:10;;;;;;;50.40;23.90;;;;;;;-4.64;71.29;101883.20;1659402;86;21089;-76
2022/03/02 02:22:43;;;;;;;48.37;23.47;;;;;;;-4.68;71.30;101882.17;1659792;86;21007;-75
2022/03/02 02:25:12;;;;;;;49.77;24.10;;;;;;;-4.73;71.18;101887.06;1659622;85;21023;-76
2022/03/02 02:27:40;;;;;;;48.47;23.37;;;;;;;-4.78;71.07;101890.20;1659764;86;21101;-76
2022/03/02 02:30:08;;;;;;;46.70;23.23;;;;;;;-4.84;71.02;101889.49;1659637;86;21116;-75
2022/03/02 02:32:37;;;;;;;48.53;23.17;;;;;;;-4.87;71.13;101880.80;1660026;85;21015;-78
2022/03/02 02:35:06;;;;;;;48.10;24.33;;;;;;;-4.91;71.05;101879.75;1666239;86;21022;-76
2022/03/02 02:37:35;;;;;;;43.47;23.60;;;;;;;-4.96;71.08;101869.69;1666363;86;21031;-75
2022/03/02 02:40:17;;;;;;;48.87;23.67;;;;;;;-5.01;71.10;101875.88;1666463;86;21134;-76
2022/03/02 02:42:45;;;;;;;52.23;24.90;;;;;;;-5.01;71.35;101868.61;1668809;86;21124;-78
2022/03/02 02:45:20;;;;;;;44.10;22.93;;;;;;;-4.97;71.44;101871.38;1668507;86;20999;-78
2022/03/02 02:47:55;;;;;;;47.77;23.23;;;;;;;-4.99;71.33;101866.98;1668497;86;21018;-76
2022/03/02 02:50:26;;;;;;;45.60;22.17;;;;;;;-5.03;71.27;101867.24;1668624;86;21095;-76
2022/03/02 02:52:56;;;;;;;52.57;24.13;;;;;;;-5.08;71.24;101863.98;1668667;86;21006;-76
2022/03/02 02:55:26;;;;;;;50.70;24.30;;;;;;;-5.12;71.24;101860.41;1668796;84;21120;-76
2022/03/02 02:57:55;;;;;;;49.13;25.30;;;;;;;-5.12;71.35;101863.36;1668623;86;21022;-76
2022/03/02 03:00:26;;;;;;;48.03;23.83;;;;;;;-5.13;71.39;101870.13;1668743;86;20913;-76
2022/03/02 03:02:54;;;;;;;52.33;23.47;;;;;;;-5.13;71.47;101874.37;1669024;86;21077;-76
2022/03/02 03:05:25;;;;;;;49.97;24.00;;;;;;;-5.16;71.55;101867.02;1668596;86;21050;-76
2022/03/02 03:07:53;;;;;;;;;;;;;;;-5.13;71.60;101869.26;1671319;86;21312;-76
2022/03/02 03:10:21;;;;;;;50.33;23.30;;;;;;;-5.14;71.60;101867.52;1668832;86;20351;-76
2022/03/02 03:12:48;;;;;;;44.57;22.13;;;;;;;-5.17;71.43;101862.72;1668734;86;20999;-76
2022/03/02 03:15:18;;;;;;;51.37;23.33;;;;;;;-5.20;71.33;101860.42;1668744;86;21522;-76
2022/03/02 03:17:47;;;;;;;40.67;20.88;;;;;;;-5.27;71.27;101854.10;1668838;86;21007;-76
2022/03/02 03:20:19;;;;;;;42.30;21.50;;;;;;;-5.30;71.28;101849.24;1668659;86;22124;-78
2022/03/02 03:22:46;;;;;;;46.80;23.47;;;;;;;-5.31;71.40;101844.54;1668707;86;20975;-76
2022/03/02 03:25:15;;;;;;;43.47;22.13;;;;;;;-5.31;71.45;101846.22;1668850;86;20970;-77
2022/03/02 03:27:43;;;;;;;40.83;20.03;;;;;;;-5.34;71.40;101844.39;1668643;86;21002;-76
2022/03/02 03:30:13;;;;;;;43.67;20.67;;;;;;;-5.35;71.38;101844.30;1668819;86;21050;-76
2022/03/02 03:32:40;;;;;;;39.27;20.67;;;;;;;-5.38;71.33;101842.45;1668677;86;21098;-76
2022/03/02 03:35:10;;;;;;;37.47;19.43;;;;;;;-5.41;71.27;101834.23;1659347;85;21497;-76
2022/03/02 03:37:38;;;;;;;38.97;19.60;;;;;;;-5.43;71.25;101837.52;1664427;86;21511;-76
2022/03/02 03:40:08;;;;;;;42.23;20.37;;;;;;;-5.43;71.40;101837.52;1669025;86;21034;-76
2022/03/02 03:42:36;;;;;;;38.40;19.73;;;;;;;-5.44;71.45;101826.42;1668784;86;21094;-76
2022/03/02 03:45:04;;;;;;;35.77;19.40;;;;;;;-5.44;71.42;101830.66;1668925;86;21091;-76
2022/03/02 03:47:31;;;;;;;40.27;19.83;;;;;;;-5.45;71.40;101823.40;1665986;86;21026;-76
2022/03/02 03:49:58;;;;;;;40.73;18.70;;;;;;;-5.47;71.39;101816.05;1666283;86;21030;-79
2022/03/02 03:52:25;;;;;;;38.77;19.87;;;;;;;-5.49;71.30;101814.21;1666081;86;21505;-76
2022/03/02 03:54:52;;;;;;;42.00;20.33;;;;;;;-5.51;71.44;101814.56;1666254;83;21590;-79
2022/03/02 03:57:19;;;;;;;41.87;20.47;;;;;;;-5.49;71.66;101816.36;1666178;86;21116;-76
2022/03/02 03:59:46;;;;;;;39.57;20.40;;;;;;;-5.46;71.55;101811.80;1665911;86;21523;-76
2022/03/02 04:02:14;;;;;;;43.10;20.13;;;;;;;-5.50;71.44;101809.51;1666296;86;21038;-76
2022/03/02 04:04:41;;;;;;;41.27;20.43;;;;;;;-5.53;71.32;101807.20;1666310;86;21421;-77
2022/03/02 04:07:08;;;;;;;45.37;21.90;;;;;;;-5.58;71.42;101810.80;1667169;85;20999;-76
2022/03/02 04:09:35;;;;;;;42.77;22.50;;;;;;;-5.61;71.40;101811.52;1666110;86;21501;-76
2022/03/02 04:12:03;;;;;;;43.90;20.67;;;;;;;-5.63;71.41;101803.30;1666529;86;21067;-76
2022/03/02 04:14:30;;;;;;;43.33;22.77;;;;;;;-5.66;71.42;101797.62;1665237;85;21120;-76
2022/03/02 04:16:57;;;;;;;47.87;20.53;;;;;;;-5.68;71.34;101792.86;1666406;86;21081;-77
2022/03/02 04:19:24;;;;;;;39.63;19.73;;;;;;;-5.72;71.37;101796.04;1666314;86;22128;-76
2022/03/02 04:21:51;;;;;;;45.27;20.43;;;;;;;-5.73;71.43;101795.98;1666505;85;21212;-77
2022/03/02 04:24:18;;;;;;;40.73;20.13;;;;;;;-5.76;71.47;101796.70;1666158;86;22041;-76
2022/03/02 04:26:45;;;;;;;45.33;21.27;;;;;;;-5.78;71.46;101794.86;1666441;86;21023;-76
2022/03/02 04:29:12;;;;;;;42.37;20.17;;;;;;;-5.79;71.46;101790.16;1666272;86;21289;-76
2022/03/02 04:31:39;;;;;;;39.70;20.10;;;;;;;-5.84;71.46;101787.36;1666326;86;21042;-76
2022/03/02 04:34:07;;;;;;;43.67;20.97;;;;;;;-5.85;71.40;101783.06;1666237;85;21953;-77
2022/03/02 04:36:34;;;;;;;38.00;21.10;;;;;;;-5.87;71.46;101789.76;1659773;84;20995;-77
2022/03/02 04:39:02;;;;;;;38.03;20.50;;;;;;;-5.89;71.59;101781.12;1659905;86;21023;-76
2022/03/02 04:41:29;;;;;;;41.27;21.37;;;;;;;-5.88;71.59;101792.22;1659680;86;21011;-76
2022/03/02 04:43:56;;;;;;;43.47;20.07;;;;;;;-5.92;71.58;101786.08;1659972;86;21497;-77
2022/03/02 04:46:23;;;;;;;39.57;20.30;;;;;;;-5.93;71.56;101788.17;1659691;86;21127;-77
2022/03/02 04:48:50;;;;;;;39.40;19.50;;;;;;;-5.94;71.63;101782.59;1659635;86;21035;-77
2022/03/02 04:51:18;;;;;;;40.23;20.80;;;;;;;-5.93;71.69;101785.62;1659527;86;21580;-77
2022/03/02 04:53:45;;;;;;;41.57;21.00;;;;;;;-5.96;71.72;101784.19;1659780;86;21576;-77
2022/03/02 04:56:12;;;;;;;44.23;19.97;;;;;;;-5.96;71.88;101784.19;1659627;86;20995;-77
2022/03/02 04:58:39;;;;;;;38.80;20.10;;;;;;;-5.95;71.96;101774.88;1659684;86;21101;-77
2022/03/02 05:01:06;;;;;;;42.57;20.60;;;;;;;-5.95;71.82;101777.43;1659830;86;21301;-80
2022/03/02 05:03:33;;;;;;;38.27;19.87;;;;;;;-5.98;71.62;101769.21;1659799;86;20984;-77
2022/03/02 05:06:00;;;;;;;40.60;20.47;;;;;;;-6.01;71.75;101770.33;1659552;86;20951;-77
2022/03/02 05:08:27;;;;;;;41.67;20.53;;;;;;;-6.03;71.72;101769.37;1659841;86;21512;-78
2022/03/02 05:10:55;;;;;;;39.07;19.30;;;;;;;-6.04;71.67;101767.62;1659681;86;21055;-78
2022/03/02 05:13:22;;;;;;;41.83;20.33;;;;;;;-6.07;71.64;101769.98;1659520;86;21453;-78
2022/03/02 05:15:49;;;;;;;41.37;21.27;;;;;;;-6.10;71.74;101773.25;1659657;86;21532;-78
2022/03/02 05:18:16;;;;;;;44.40;19.97;;;;;;;-6.13;71.74;101771.82;1659771;86;21595;-78
2022/03/02 05:20:43;;;;;;;40.70;19.60;;;;;;;-6.13;71.76;101767.12;1659693;85;21027;-79
2022/03/02 05:23:11;;;;;;;39.97;19.47;;;;;;;-6.15;71.78;101766.16;1659574;86;21934;-78
2022/03/02 05:25:38;;;;;;;41.33;19.37;;;;;;;-6.17;71.79;101767.37;1659750;85;21000;-78
2022/03/02 05:28:05;;;;;;;52.50;23.63;;;;;;;-6.14;72.20;101768.80;1659571;85;21035;-78
2022/03/02 05:30:32;;;;;;;49.20;23.53;;;;;;;-6.09;72.64;101769.92;1659769;86;22067;-77
2022/03/02 05:33:00;;;;;;;47.13;22.47;;;;;;;-5.99;72.77;101770.39;1659555;84;21540;-76
2022/03/02 05:35:27;;;;;;;38.90;19.90;;;;;;;-5.96;72.59;101768.00;1666161;85;22128;-76
2022/03/02 05:37:55;;;;;;;43.03;21.10;;;;;;;-5.99;72.43;101773.81;1668729;86;21512;-77
2022/03/02 05:40:22;;;;;;;44.70;22.47;;;;;;;-5.99;72.42;101781.88;1669025;86;21041;-79
2022/03/02 05:42:50;;;;;;;51.73;24.63;;;;;;;-6.00;72.35;101778.86;1668894;86;21030;-77
2022/03/02 05:45:17;;;;;;;52.57;26.03;;;;;;;-6.00;72.28;101782.28;1669002;86;21073;-80
2022/03/02 05:47:45;;;;;;;50.87;26.03;;;;;;;-5.98;72.41;101782.37;1668570;86;39242;-83
2022/03/02 05:50:12;;;;;;;59.37;26.83;;;;;;;-5.98;72.31;101781.10;1668684;86;21006;-82
2022/03/02 05:52:39;;;;;;;50.77;27.20;;;;;;;-5.95;72.55;101779.98;1669586;86;21093;-80
2022/03/02 05:55:07;;;;;;;57.30;30.00;;;;;;;-5.95;72.70;101779.98;1670128;86;21014;-79
2022/03/02 05:57:34;;;;;;;62.53;30.20;;;;;;;-5.90;72.74;101788.73;1670269;83;21051;-80
2022/03/02 06:00:02;;;;;;;64.37;30.23;;;;;;;-5.91;72.52;101787.83;1677570;84;21051;-82
2022/03/02 06:02:31;;;;;;;62.20;29.73;;;;;;;-5.90;72.55;101793.43;1688795;84;21018;-82
2022/03/02 06:04:58;;;;;;;57.10;28.97;;;;;;;-5.85;72.68;101797.48;1668763;86;21003;-82
2022/03/02 06:07:25;;;;;;;59.27;29.83;;;;;;;-5.83;72.57;101794.20;1668935;86;21026;-80
2022/03/02 06:09:52;;;;;;;64.23;31.03;;;;;;;-5.81;72.49;101794.70;1668629;86;21015;-80
2022/03/02 06:12:20;;;;;;;59.13;29.90;;;;;;;-5.81;72.44;101790.88;1669352;86;22003;-81
2022/03/02 06:14:48;;;;;;;70.77;33.07;;;;;;;-5.80;72.49;101784.55;1658885;85;21058;-81
2022/03/02 06:17:15;;;;;;;65.37;31.17;;;;;;;-5.78;72.63;101789.34;1669168;86;21046;-81
2022/03/02 06:19:42;;;;;;;66.30;32.03;;;;;;;-5.74;72.71;101781.03;1670330;85;21002;-82
2022/03/02 06:22:10;;;;;;;63.40;32.97;;;;;;;-5.70;72.70;101784.23;1670201;86;21014;-82
2022/03/02 06:24:38;;;;;;;66.33;32.83;;;;;;;-5.64;72.95;101785.81;1670133;86;21129;-82
2022/03/02 06:27:05;;;;;;;67.10;31.90;;;;;;;-5.55;73.14;101783.25;1670407;85;21018;-80
2022/03/02 06:29:32;;;;;;;62.97;32.10;;;;;;;-5.45;73.33;101784.20;1670421;85;21006;-79
2022/03/02 06:31:59;;;;;;;63.97;32.57;;;;;;;-5.38;73.51;101783.69;1670263;86;21034;-82
2022/03/02 06:34:26;;;;;;;64.37;31.67;;;;;;;-5.30;73.59;101782.80;1668044;85;21197;-81
2022/03/02 06:36:53;;;;;;;63.47;30.27;;;;;;;-5.22;73.91;101775.98;1662573;86;21167;-80
2022/03/02 06:39:22;;;;;;;62.80;31.03;;;;;;;-5.11;74.09;101779.06;1670255;86;20999;-81
2022/03/02 06:42:20;;;;;;;65.97;31.00;;;;;;;-5.01;74.20;101782.95;1670172;86;21034;-80
2022/03/02 06:45:02;;;;;;;58.93;29.73;;;;;;;-4.90;74.18;101782.16;1670097;86;21026;-82
2022/03/02 06:47:34;;;;;;;50.37;26.40;;;;;;;-4.81;74.46;101785.19;1670127;84;21063;-80
2022/03/02 06:50:11;;;;;;;52.30;25.87;;;;;;;-4.68;74.92;101782.41;1669307;86;21099;-82
2022/03/02 06:52:44;;;;;;;49.17;24.40;;;;;;;-4.55;75.11;101780.00;1670357;85;20979;-82
2022/03/02 06:55:16;;;;;;;49.83;25.67;;;;;;;-4.43;75.20;101774.56;1670126;86;21530;-81
2022/03/02 06:57:59;;;;;;;51.03;25.30;;;;;;;-4.34;75.16;101780.12;1670388;85;21031;-82
2022/03/02 07:00:27;;;;;;;48.63;25.73;;;;;;;-4.26;75.08;101782.22;1670080;86;21515;-82
2022/03/02 07:03:05;;;;;;;50.57;25.90;;;;;;;-4.17;75.07;101784.72;1670379;85;21496;-81
2022/03/02 07:05:33;;;;;;;48.90;24.63;;;;;;;-4.09;75.15;101787.22;1641558;87;20995;-82
2022/03/02 07:08:03;;;;;;;47.03;23.10;;;;;;;-4.01;75.23;101787.16;1641522;87;21495;-81
2022/03/02 07:10:35;;;;;;;45.53;23.73;;;;;;;-3.92;75.21;101774.75;1670463;84;21532;-81
2022/03/02 07:13:05;;;;;;;45.07;22.70;;;;;;;-3.85;75.19;101780.62;1703781;84;20987;-82
2022/03/02 07:15:33;;;;;;;50.12;24.65;;;;;;;-3.75;75.20;101779.32;1697502;84;21119;-82
2022/03/02 07:18:03;;;;;;;63.60;31.03;;;;;;;-3.66;75.11;101779.73;1670350;85;21288;-79
2022/03/02 07:20:30;;;;;;;77.00;33.97;;;;;;;-3.57;75.12;101777.97;1669962;86;21082;-82
2022/03/02 07:23:00;;;;;;;80.27;33.50;;;;;;;-3.46;75.13;101779.30;1667627;86;21090;-80
2022/03/02 07:25:37;;;;;;;298.77;86.87;;;;;;;-3.35;74.87;101777.19;1665984;86;21074;-79
2022/03/02 07:28:06;;;;;;;172.87;58.70;;;;;;;-3.25;74.67;101772.02;1667557;86;21134;-80
2022/03/02 07:30:33;;;;;;;98.70;37.67;;;;;;;-3.15;74.69;101775.02;1667305;86;21025;-82
2022/03/02 07:33:05;;;;;;;63.97;30.60;;;;;;;-3.05;74.68;101774.97;1667503;86;21390;-84
2022/03/02 07:35:36;;;;;;;288.77;102.43;;;;;;;-2.96;74.42;101777.06;1667632;84;21291;-81
2022/03/02 07:38:05;;;;;;;161.70;64.80;;;;;;;-2.88;74.16;101782.47;1661165;86;21037;-75
2022/03/02 07:40:33;;;;;;;62.83;30.43;;;;;;;-2.81;74.11;101779.34;1661069;86;21099;-82
2022/03/02 07:43:01;;;;;;;91.50;35.83;;;;;;;-2.74;73.83;101777.09;1661015;86;21031;-78
2022/03/02 07:45:28;;;;;;;100.87;38.93;;;;;;;-2.65;73.49;101775.70;1661131;86;21038;-79
2022/03/02 07:47:56;;;;;;;97.03;37.37;;;;;;;-2.57;73.42;101774.30;1661091;86;20999;-76
2022/03/02 07:50:24;;;;;;;72.10;32.20;;;;;;;-2.48;73.38;101770.80;1661445;86;21019;-77
2022/03/02 07:52:52;;;;;;;106.80;43.47;;;;;;;-2.40;73.10;101761.69;1661008;86;21988;-76
2022/03/02 07:55:20;;;;;;;76.37;33.87;;;;;;;-2.30;73.04;101757.38;1661207;86;21508;-77
2022/03/02 07:57:55;;;;;;;60.40;29.50;;;;;;;-2.21;72.99;101759.82;1661013;86;21611;-75
2022/03/02 08:00:25;;;;;;;48.90;26.13;;;;;;;-2.10;73.04;101756.81;1661407;86;21508;-77
2022/03/02 08:02:56;;;;;;;47.33;25.90;;;;;;;-1.98;72.73;101761.52;1661195;86;21498;-76
2022/03/02 08:05:24;;;;;;;48.20;25.73;;;;;;;-1.89;72.50;101750.27;1661364;85;21102;-78
2022/03/02 08:07:51;;;;;;;52.40;26.53;;;;;;;-1.80;72.41;101749.74;1660960;86;21050;-77
2022/03/02 08:10:19;;;;;;;72.53;33.53;;;;;;;-1.70;72.31;101742.80;1661416;84;21084;-76
2022/03/02 08:12:46;;;;;;;55.97;28.10;;;;;;;-1.62;72.09;101743.94;1661084;84;21897;-78
2022/03/02 08:15:13;;;;;;;76.27;37.13;;;;;;;-1.52;72.18;101747.70;1661389;86;21625;-81
2022/03/02 08:17:43;;;;;;;72.83;35.40;;;;;;;-1.40;72.21;101747.23;1690035;84;21193;-76
2022/03/02 08:20:11;;;;;;;;;;;;;;;-1.30;71.92;101740.30;1672483;84;21529;-79
2022/03/02 08:22:48;;;;;;;54.10;25.33;;;;;;;-1.21;71.74;101738.43;1661289;85;20206;-81
2022/03/02 08:25:12;;;;;;;65.27;30.20;;;;;;;-1.10;71.93;101743.92;1687160;85;21501;-77
2022/03/02 08:27:43;;;;;;;54.67;27.63;;;;;;;-0.97;71.83;101739.60;1696892;84;21350;-80
2022/03/02 08:30:13;;;;;;;57.37;29.00;;;;;;;-0.86;71.63;101739.53;1696690;84;21191;-81
2022/03/02 08:32:47;;;;;;;54.27;29.20;;;;;;;-0.72;71.76;101734.80;1697202;84;21033;-83
2022/03/02 08:35:14;;;;;;;58.43;29.50;;;;;;;-0.58;71.57;101732.25;1696339;83;21002;-90
2022/03/02 08:37:42;;;;;;;53.27;27.87;;;;;;;-0.47;71.41;101723.56;1689775;85;21038;-81
2022/03/02 08:40:11;;;;;;;59.93;28.60;;;;;;;-0.34;71.31;101720.48;1689700;85;21550;-83
2022/03/02 08:42:38;;;;;;;46.80;24.40;;;;;;;-0.17;71.23;101722.67;1689828;85;21503;-82
2022/03/02 08:45:07;;;;;;;43.47;23.47;;;;;;;-0.02;71.12;101717.95;1662566;84;21090;-81
2022/03/02 08:47:34;;;;;;;47.13;23.50;;;;;;;0.16;70.94;101714.98;1661130;86;21038;-85
2022/03/02 08:50:03;;;;;;;41.03;22.00;;;;;;;0.36;70.71;101710.34;1670546;84;21503;-84
2022/03/02 08:52:33;;;;;;;42.27;22.40;;;;;;;0.59;70.71;101711.81;1661192;86;21011;-83
2022/03/02 08:55:04;;;;;;;;;;;;;;;0.79;70.39;101706.26;1671238;85;21612;-84
2022/03/02 08:57:34;;;;;;;32.98;20.57;;;;;;;1.04;70.52;101709.00;1668012;86;20266;-82
2022/03/02 09:00:06;;;;;;;36.20;19.60;;;;;;;1.27;70.09;101705.63;1668014;85;21054;-83
2022/03/02 09:02:36;;;;;;;40.17;20.73;;;;;;;1.46;69.46;101702.59;1667924;86;21599;-82
2022/03/02 09:05:06;;;;;;;33.78;18.57;;;;;;;1.64;68.96;101697.38;1646935;85;21589;-83
2022/03/02 09:07:33;;;;;;;46.70;21.23;;;;;;;1.81;68.53;101701.17;1658773;86;21969;-83
2022/03/02 09:10:01;;;;;;;34.87;19.37;;;;;;;2.00;67.92;101699.81;1668327;84;21026;-82
2022/03/02 09:12:29;;;;;;;43.47;20.93;;;;;;;2.16;67.78;101699.26;1668007;86;21046;-79
2022/03/02 09:14:58;;;;;;;32.70;19.43;;;;;;;2.36;67.19;101700.04;1669144;84;21549;-83
2022/03/02 09:17:25;;;;;;;54.60;25.07;;;;;;;2.51;67.16;101695.11;1661285;86;21027;-83
2022/03/02 09:19:53;;;;;;;37.30;21.23;;;;;;;2.67;67.03;101686.75;1664874;84;22032;-81
2022/03/02 09:22:23;;;;;;;37.10;22.20;;;;;;;2.86;66.96;101688.34;1676720;84;21051;-82
2022/03/02 09:24:51;;;;;;;39.70;23.70;;;;;;;3.00;66.22;101688.12;1677638;84;21708;-78
2022/03/02 09:27:20;;;;;;;57.70;35.87;;;;;;;3.20;66.27;101683.64;1661442;86;21027;-76
2022/03/02 09:29:49;;;;;;;35.63;21.57;;;;;;;3.31;65.38;101684.23;1661174;86;21078;-78
2022/03/02 09:32:18;;;;;;;34.80;19.13;;;;;;;3.40;64.79;101678.72;1661573;86;21163;-75
2022/03/02 09:34:48;;;;;;;38.50;21.20;;;;;;;3.55;64.73;101680.23;1661219;86;21023;-75
2022/03/02 09:37:17;;;;;;;29.77;17.57;;;;;;;3.69;64.47;101677.37;1697352;84;21042;-76
2022/03/02 09:39:44;;;;;;;30.20;18.53;;;;;;;3.87;64.52;101666.75;1697515;84;21482;-75
2022/03/02 09:42:20;;;;;;;28.63;16.80;;;;;;;4.07;63.66;101666.95;1697899;84;21496;-75
2022/03/02 09:44:50;;;;;;;27.30;16.37;;;;;;;4.19;63.30;101669.68;1697514;84;21792;-75
2022/03/02 09:47:21;;;;;;;30.13;18.00;;;;;;;4.35;62.57;101670.27;1697663;84;20992;-74
2022/03/02 09:49:55;;;;;;;35.33;20.30;;;;;;;4.51;62.34;101667.78;1697561;84;21086;-75
2022/03/02 09:52:24;;;;;;;29.47;16.87;;;;;;;4.61;61.93;101664.41;1697796;84;21034;-74
2022/03/02 09:54:55;;;;;;;28.87;17.13;;;;;;;4.75;61.71;101664.52;1697595;84;21082;-75
2022/03/02 09:57:23;;;;;;;25.63;15.83;;;;;;;4.85;61.16;101658.10;1697862;84;21070;-75
2022/03/02 09:59:56;;;;;;;27.07;15.77;;;;;;;4.98;60.72;101655.13;1697665;84;21078;-75
2022/03/02 10:02:43;;;;;;;26.30;15.77;;;;;;;5.11;60.57;101650.89;1697615;84;21014;-74
2022/03/02 10:05:21;;;;;;;25.90;16.07;;;;;;;5.32;60.52;101644.91;1697422;84;22015;-75
2022/03/02 10:08:11;;;;;;;23.23;15.27;;;;;;;5.52;59.93;101649.78;1696717;83;21067;-75
2022/03/02 10:10:39;;;;;;;25.87;14.57;;;;;;;5.73;59.43;101640.30;1696888;83;21156;-75
2022/03/02 10:13:11;;;;;;;;;;;;;;;5.95;58.99;101647.76;1700426;84;21003;-74
2022/03/02 10:15:40;;;;;;;21.27;13.33;;;;;;;6.07;58.00;101641.70;1666127;86;20147;-74
2022/03/02 10:18:11;;;;;;;22.37;14.13;;;;;;;6.13;58.05;101641.29;1637720;87;21076;-74
2022/03/02 10:20:49;;;;;;;23.57;14.83;;;;;;;6.27;57.45;101636.09;1670325;85;21103;-80
2022/03/02 10:23:41;;;;;;;24.43;15.07;;;;;;;6.39;57.16;101638.69;1669272;85;21214;-83
2022/03/02 10:26:18;;;;;;;21.30;14.17;;;;;;;6.64;57.03;101638.24;1683575;84;21042;-79
2022/03/02 10:29:09;;;;;;;24.00;14.60;;;;;;;6.89;56.69;101635.16;1680986;84;21052;-79
2022/03/02 10:31:48;;;;;;;23.97;14.50;;;;;;;7.07;56.36;101637.31;1635346;87;21055;-77
2022/03/02 10:34:31;;;;;;;24.07;16.23;;;;;;;7.24;55.69;101633.34;1646823;84;21032;-78
2022/03/02 10:37:36;;;;;;;26.53;15.70;;;;;;;7.46;55.24;101623.70;1652953;86;21164;-79
2022/03/02 10:40:16;;;;;;;21.77;14.83;;;;;;;7.52;54.98;101621.91;1668052;86;21513;-77
2022/03/02 10:43:05;;;;;;;23.67;14.58;;;;;;;7.62;54.61;101616.64;1663551;84;21018;-79
2022/03/02 10:45:38;;;;;;;23.67;15.17;;;;;;;7.60;54.07;101614.05;1643477;85;21070;-76
2022/03/02 10:48:30;;;;;;;25.60;16.03;;;;;;;7.74;53.82;101610.92;1643031;87;21002;-78
2022/03/02 10:51:00;;;;;;;22.17;15.50;;;;;;;8.01;53.71;101613.80;1633931;87;21309;-77
2022/03/02 10:53:30;;;;;;;21.90;14.77;;;;;;;8.10;53.17;101610.70;1634050;87;21020;-79
2022/03/02 10:55:58;;;;;;;22.40;15.43;;;;;;;8.20;52.65;101609.31;1634127;87;25609;-80
2022/03/02 10:58:28;;;;;;;20.67;13.87;;;;;;;8.34;52.36;101616.14;1668246;84;21023;-79
2022/03/02 11:00:56;;;;;;;;;;;;;;;8.52;52.32;101607.33;1656189;84;21659;-80
2022/03/02 11:03:25;;;;;;;21.57;15.77;;;;;;;8.71;51.44;101600.59;1670222;84;21794;-78
2022/03/02 11:05:52;;;;;;;22.33;15.20;;;;;;;8.90;51.58;101601.73;1678016;84;20991;-79
2022/03/02 11:08:22;;;;;;;22.07;13.97;;;;;;;9.06;51.37;101598.05;1653627;84;21051;-79
2022/03/02 11:10:50;;;;;;;;;;;;;;;9.21;50.99;101589.59;1676914;84;21072;-79
2022/03/02 11:13:17;;;;;;;23.10;14.97;;;;;;;9.32;49.81;101592.95;1671679;84;20595;-79
2022/03/02 11:15:51;;;;;;;21.52;14.58;;;;;;;9.38;50.08;101583.70;1687384;84;21131;-77
2022/03/02 11:18:40;;;;;;;27.58;16.93;;;;;;;9.50;49.92;101582.66;1693933;84;21481;-79
2022/03/02 11:21:11;;;;;;;24.55;16.30;;;;;;;9.68;49.72;101582.41;1694347;84;21485;-85
2022/03/02 11:23:53;;;;;;;24.10;14.78;;;;;;;9.77;49.11;101576.17;1680939;84;21034;-82